Time;durP1;ratioP1;P1;durP2;ratioP2;P2;SDS_P1;SDS_P2;PMS_P1;PMS_P2;Temp;Humidity;BMP_temperature;BMP_pressure;BME280_temperature;BME280_humidity;BME280_pressure;Samples;Min_cycle;Max_cycle;Signal;HPM_P1;HPM_P2
2021/05/19 00:01:42;;;;;;;7.85;5.00;;;;;;;;;;5060814;28;20039;-83
2021/05/19 00:04:08;;;;;;;7.38;5.32;;;;;;;;;;5068532;28;20040;-83
2021/05/19 00:06:35;;;;;;;8.65;5.43;;;;;;;;;;5060612;28;20023;-82
2021/05/19 00:09:01;;;;;;;7.07;5.20;;;;;;;;;;5057184;28;20556;-83
2021/05/19 00:11:27;;;;;;;7.10;4.85;;;;;;;;;;5062494;28;20017;-83
2021/05/19 00:13:53;;;;;;;10.18;5.85;;;;;;;;;;5069480;28;20087;-83
2021/05/19 00:16:19;;;;;;;9.13;5.40;;;;;;;;;;5056741;28;20025;-83
2021/05/19 00:18:45;;;;;;;9.05;5.20;;;;;;;;;;5059736;28;20029;-83
2021/05/19 00:21:11;;;;;;;8.70;5.32;;;;;;;;;;5067199;28;20039;-82
2021/05/19 00:23:37;;;;;;;7.07;5.13;;;;;;;;;;5059428;28;20094;-83
2021/05/19 00:26:04;;;;;;;6.70;5.43;;;;;;;;;;5059750;28;20016;-83
2021/05/19 00:28:30;;;;;;;11.05;6.35;;;;;;;;;;5057135;28;20045;-83
2021/05/19 00:31:00;;;;;;;8.20;5.65;;;;;;;;;;5050503;28;20063;-83
2021/05/19 00:33:26;;;;;;;8.98;5.70;;;;;;;;;;5061912;28;20063;-82
2021/05/19 00:35:52;;;;;;;9.68;4.57;;;;;;;;;;5065956;28;20055;-82
2021/05/19 00:38:18;;;;;;;6.47;5.15;;;;;;;;;;5075239;28;20052;-83
2021/05/19 00:40:44;;;;;;;7.22;5.18;;;;;;;;;;5068577;28;20025;-83
2021/05/19 00:43:10;;;;;;;8.27;5.32;;;;;;;;;;5055363;28;20112;-83
2021/05/19 00:45:36;;;;;;;8.65;5.15;;;;;;;;;;5067649;28;20251;-83
2021/05/19 00:48:03;;;;;;;8.85;5.57;;;;;;;;;;5067502;28;20114;-83
2021/05/19 00:50:30;;;;;;;9.02;5.90;;;;;;;;;;5073008;28;20448;-83
2021/05/19 00:52:56;;;;;;;8.27;5.88;;;;;;;;;;5059704;28;20052;-83
2021/05/19 00:55:22;;;;;;;9.43;6.38;;;;;;;;;;5053628;28;20120;-83
2021/05/19 00:57:50;;;;;;;8.57;5.75;;;;;;;;;;5069566;28;20032;-83
2021/05/19 01:00:17;;;;;;;9.65;6.10;;;;;;;;;;5066647;28;20129;-83
2021/05/19 01:02:43;;;;;;;7.57;5.72;;;;;;;;;;5067719;28;20107;-83
2021/05/19 01:05:30;;;;;;;8.75;5.22;;;;;;;;;;5065957;28;20539;-83
2021/05/19 01:10:46;;;;;;;9.60;5.95;;;;;;;;;;5034800;28;20464;-83
2021/05/19 01:13:12;;;;;;;7.55;5.13;;;;;;;;;;5056090;28;20021;-83
2021/05/19 01:15:38;;;;;;;12.35;5.82;;;;;;;;;;5066670;28;20110;-83
2021/05/19 01:18:05;;;;;;;9.88;5.63;;;;;;;;;;5058267;28;20419;-83
2021/05/19 01:20:31;;;;;;;8.52;5.35;;;;;;;;;;5059894;28;20037;-83
2021/05/19 01:22:58;;;;;;;10.43;5.22;;;;;;;;;;5060987;28;20033;-83
2021/05/19 01:25:24;;;;;;;8.98;5.60;;;;;;;;;;5064304;28;20128;-83
2021/05/19 01:27:54;;;;;;;7.93;5.68;;;;;;;;;;5066198;28;20104;-83
2021/05/19 01:30:20;;;;;;;6.78;4.85;;;;;;;;;;5067464;28;20023;-83
2021/05/19 01:32:46;;;;;;;8.15;5.47;;;;;;;;;;5060445;28;20047;-83
2021/05/19 01:35:13;;;;;;;8.60;5.53;;;;;;;;;;5053487;28;20119;-83
2021/05/19 01:37:40;;;;;;;9.75;4.88;;;;;;;;;;5068456;28;20510;-83
2021/05/19 01:40:06;;;;;;;7.72;4.63;;;;;;;;;;5071534;28;20094;-83
2021/05/19 01:42:32;;;;;;;8.13;5.68;;;;;;;;;;5069220;28;20031;-83
2021/05/19 01:44:58;;;;;;;6.88;5.55;;;;;;;;;;5068039;28;20016;-83
2021/05/19 01:47:46;;;;;;;9.45;5.60;;;;;;;;;;5070621;28;20032;-83
2021/05/19 01:50:13;;;;;;;8.35;6.03;;;;;;;;;;5057989;28;20210;-83
2021/05/19 01:52:38;;;;;;;8.38;5.70;;;;;;;;;;5065882;28;20059;-83
2021/05/19 01:55:06;;;;;;;10.35;6.32;;;;;;;;;;5052411;28;20028;-83
2021/05/19 01:57:32;;;;;;;10.32;6.07;;;;;;;;;;5060219;28;20028;-83
2021/05/19 01:59:58;;;;;;;11.48;6.63;;;;;;;;;;5067470;28;20031;-83
2021/05/19 02:02:24;;;;;;;7.43;6.20;;;;;;;;;;5061827;28;20040;-83
2021/05/19 02:04:50;;;;;;;8.57;5.72;;;;;;;;;;5052867;28;20476;-83
2021/05/19 02:07:16;;;;;;;8.45;6.50;;;;;;;;;;5063549;28;20119;-83
2021/05/19 02:09:42;;;;;;;9.48;6.28;;;;;;;;;;5067174;28;20032;-83
2021/05/19 02:12:09;;;;;;;9.73;6.38;;;;;;;;;;5053644;28;20491;-83
2021/05/19 02:14:35;;;;;;;11.52;6.78;;;;;;;;;;5070352;28;20029;-82
2021/05/19 02:17:00;;;;;;;7.50;5.47;;;;;;;;;;5054002;28;20072;-82
2021/05/19 02:19:26;;;;;;;12.32;6.22;;;;;;;;;;5060883;28;20025;-83
2021/05/19 02:21:52;;;;;;;10.68;6.45;;;;;;;;;;5062312;28;20025;-83
2021/05/19 02:24:19;;;;;;;9.13;6.13;;;;;;;;;;5073016;28;20465;-83
2021/05/19 02:26:45;;;;;;;8.15;5.85;;;;;;;;;;5056502;28;20055;-83
2021/05/19 02:29:11;;;;;;;9.98;6.40;;;;;;;;;;5068893;28;20040;-83
2021/05/19 02:31:37;;;;;;;8.50;6.05;;;;;;;;;;5059495;28;20068;-83
2021/05/19 02:34:03;;;;;;;7.95;5.60;;;;;;;;;;5056027;28;20075;-83
2021/05/19 02:36:29;;;;;;;7.18;5.00;;;;;;;;;;5069764;28;20047;-82
2021/05/19 02:38:55;;;;;;;8.23;5.18;;;;;;;;;;5066163;28;20021;-82
2021/05/19 02:41:22;;;;;;;10.45;5.70;;;;;;;;;;5065338;28;20028;-82
2021/05/19 02:43:48;;;;;;;5.78;4.63;;;;;;;;;;5056017;28;20060;-83
2021/05/19 02:46:14;;;;;;;8.23;5.65;;;;;;;;;;5061302;28;20025;-83
2021/05/19 02:48:41;;;;;;;9.50;5.57;;;;;;;;;;5063733;28;20449;-83
2021/05/19 02:51:07;;;;;;;9.57;5.20;;;;;;;;;;5061002;28;20059;-83
2021/05/19 02:53:33;;;;;;;7.72;5.63;;;;;;;;;;5057399;28;20422;-83
2021/05/19 02:55:59;;;;;;;8.57;4.93;;;;;;;;;;5072556;28;20036;-83
2021/05/19 02:58:25;;;;;;;6.30;5.03;;;;;;;;;;5055794;28;20060;-83
2021/05/19 03:00:51;;;;;;;8.15;5.50;;;;;;;;;;5070996;28;20107;-83
2021/05/19 03:03:17;;;;;;;7.50;4.97;;;;;;;;;;5068409;28;20120;-83
2021/05/19 03:05:44;;;;;;;7.53;5.43;;;;;;;;;;5051659;28;20162;-83
2021/05/19 03:08:09;;;;;;;6.00;4.68;;;;;;;;;;5069479;28;20059;-83
2021/05/19 03:10:35;;;;;;;8.25;5.25;;;;;;;;;;5064684;28;20053;-83
2021/05/19 03:13:02;;;;;;;7.30;4.75;;;;;;;;;;5059103;28;20024;-83
2021/05/19 03:15:28;;;;;;;8.93;5.82;;;;;;;;;;5069641;28;20032;-83
2021/05/19 03:17:55;;;;;;;10.63;5.70;;;;;;;;;;5054266;28;20120;-83
2021/05/19 03:20:21;;;;;;;7.32;5.00;;;;;;;;;;5068951;28;20025;-83
2021/05/19 03:22:47;;;;;;;7.10;4.85;;;;;;;;;;5071156;28;20555;-83
2021/05/19 03:25:13;;;;;;;7.90;5.43;;;;;;;;;;5069824;28;20052;-83
2021/05/19 03:27:39;;;;;;;7.43;5.30;;;;;;;;;;5070095;28;20064;-83
2021/05/19 03:30:07;;;;;;;8.85;5.35;;;;;;;;;;5064760;28;20037;-83
2021/05/19 03:32:33;;;;;;;9.18;6.07;;;;;;;;;;5059718;28;20516;-83
2021/05/19 03:34:59;;;;;;;7.57;6.25;;;;;;;;;;5062607;28;20452;-83
2021/05/19 03:37:25;;;;;;;9.15;6.05;;;;;;;;;;5061506;28;20124;-83
2021/05/19 03:39:51;;;;;;;9.98;5.65;;;;;;;;;;5066802;28;20124;-83
2021/05/19 03:42:17;;;;;;;8.18;5.68;;;;;;;;;;5061380;28;20036;-83
2021/05/19 03:44:43;;;;;;;8.63;5.78;;;;;;;;;;5052617;28;20025;-83
2021/05/19 03:47:10;;;;;;;7.18;4.97;;;;;;;;;;5056360;28;20037;-83
2021/05/19 03:49:38;;;;;;;6.63;5.22;;;;;;;;;;5058723;28;20528;-83
2021/05/19 03:52:05;;;;;;;9.55;6.13;;;;;;;;;;5063956;28;20025;-83
2021/05/19 03:54:33;;;;;;;7.35;5.50;;;;;;;;;;5064562;28;20093;-83
2021/05/19 03:57:00;;;;;;;8.07;5.35;;;;;;;;;;5057782;28;20320;-83
2021/05/19 03:59:26;;;;;;;10.27;5.90;;;;;;;;;;5070958;28;20029;-83
2021/05/19 04:01:52;;;;;;;8.07;6.03;;;;;;;;;;5071450;28;20419;-83
2021/05/19 04:04:18;;;;;;;8.85;5.43;;;;;;;;;;5056579;28;20130;-83
2021/05/19 04:06:44;;;;;;;10.20;5.95;;;;;;;;;;5058031;28;20012;-83
2021/05/19 04:09:12;;;;;;;12.15;6.20;;;;;;;;;;5069993;28;20055;-83
2021/05/19 04:11:38;;;;;;;7.55;5.30;;;;;;;;;;5061115;28;20036;-83
2021/05/19 04:14:04;;;;;;;7.82;6.35;;;;;;;;;;5067424;28;20024;-83
2021/05/19 04:16:30;;;;;;;7.93;5.72;;;;;;;;;;5061676;28;20028;-83
2021/05/19 04:18:56;;;;;;;8.45;5.68;;;;;;;;;;5062550;28;20029;-83
2021/05/19 04:21:22;;;;;;;10.23;6.78;;;;;;;;;;5073263;28;20025;-83
2021/05/19 04:23:48;;;;;;;8.80;6.32;;;;;;;;;;5074462;28;20507;-83
2021/05/19 04:26:14;;;;;;;7.85;5.80;;;;;;;;;;5060780;28;20016;-83
2021/05/19 04:28:40;;;;;;;8.10;5.90;;;;;;;;;;5061373;28;20084;-83
2021/05/19 04:31:06;;;;;;;8.02;5.97;;;;;;;;;;5073150;28;20054;-83
2021/05/19 04:33:33;;;;;;;8.43;5.70;;;;;;;;;;5059476;28;20162;-84
2021/05/19 04:35:59;;;;;;;7.93;5.82;;;;;;;;;;5069679;28;20025;-83
2021/05/19 04:38:26;;;;;;;9.55;7.10;;;;;;;;;;5066047;28;20029;-84
2021/05/19 04:40:52;;;;;;;12.10;7.40;;;;;;;;;;5068097;28;20035;-84
2021/05/19 04:43:18;;;;;;;10.43;7.18;;;;;;;;;;5068846;28;20028;-84
2021/05/19 04:45:45;;;;;;;11.93;7.30;;;;;;;;;;5068657;28;20082;-84
2021/05/19 04:48:11;;;;;;;10.98;7.78;;;;;;;;;;5056612;28;20112;-85
2021/05/19 04:50:38;;;;;;;8.63;6.72;;;;;;;;;;5066850;28;20124;-84
2021/05/19 04:53:05;;;;;;;10.40;6.75;;;;;;;;;;5063518;28;20033;-84
2021/05/19 04:55:31;;;;;;;11.63;7.30;;;;;;;;;;5063617;28;20078;-84
2021/05/19 04:57:57;;;;;;;10.25;6.93;;;;;;;;;;5057161;28;20036;-86
2021/05/19 05:00:23;;;;;;;10.38;7.15;;;;;;;;;;5070579;28;20365;-86
2021/05/19 05:02:49;;;;;;;9.93;6.80;;;;;;;;;;5061657;28;20051;-84
2021/05/19 05:05:15;;;;;;;9.48;6.88;;;;;;;;;;5068119;28;20426;-83
2021/05/19 05:07:41;;;;;;;11.80;6.45;;;;;;;;;;5091610;28;20025;-85
2021/05/19 05:10:09;;;;;;;10.20;7.25;;;;;;;;;;5068275;28;20025;-87
2021/05/19 05:12:36;;;;;;;9.00;6.25;;;;;;;;;;5066012;28;20057;-84
2021/05/19 05:15:11;;;;;;;10.32;6.30;;;;;;;;;;5066786;28;20702;-85
2021/05/19 05:17:37;;;;;;;9.65;6.50;;;;;;;;;;5068006;28;20128;-84
2021/05/19 05:20:05;;;;;;;9.38;6.57;;;;;;;;;;5059671;28;20120;-83
2021/05/19 05:22:31;;;;;;;8.68;5.88;;;;;;;;;;5068543;28;20029;-84
2021/05/19 05:24:57;;;;;;;10.32;5.82;;;;;;;;;;5055301;28;20380;-86
2021/05/19 05:27:23;;;;;;;9.63;6.68;;;;;;;;;;5075245;28;20044;-85
2021/05/19 05:29:49;;;;;;;8.73;6.13;;;;;;;;;;5075961;28;20032;-85
2021/05/19 05:32:15;;;;;;;9.82;6.72;;;;;;;;;;5064150;28;20028;-87
2021/05/19 05:34:41;;;;;;;9.13;6.70;;;;;;;;;;5060644;28;20028;-83
2021/05/19 05:37:07;;;;;;;8.32;6.05;;;;;;;;;;5079350;28;20028;-83
2021/05/19 05:39:33;;;;;;;10.05;6.93;;;;;;;;;;5085713;28;20013;-84
2021/05/19 05:41:59;;;;;;;8.45;6.22;;;;;;;;;;5081211;28;20013;-85
2021/05/19 05:44:25;;;;;;;7.07;5.07;;;;;;;;;;5091569;28;20021;-84
2021/05/19 05:46:51;;;;;;;8.15;5.78;;;;;;;;;;5068984;28;20013;-85
2021/05/19 05:49:17;;;;;;;9.40;7.03;;;;;;;;;;5109558;28;20023;-83
2021/05/19 05:51:43;;;;;;;11.10;6.15;;;;;;;;;;5090050;28;20016;-85
2021/05/19 05:54:10;;;;;;;9.73;6.45;;;;;;;;;;5093358;28;20024;-85
2021/05/19 05:56:36;;;;;;;9.73;6.47;;;;;;;;;;5094205;28;20038;-85
2021/05/19 05:59:03;;;;;;;7.60;5.60;;;;;;;;;;5087313;28;20063;-85
2021/05/19 06:01:29;;;;;;;8.48;5.55;;;;;;;;;;5089183;28;20100;-85
2021/05/19 06:03:55;;;;;;;8.88;6.43;;;;;;;;;;5093627;28;20016;-85
2021/05/19 06:06:20;;;;;;;5.90;4.55;;;;;;;;;;5089051;28;20427;-85
2021/05/19 06:08:46;;;;;;;9.07;5.28;;;;;;;;;;5083504;28;20025;-85
2021/05/19 06:11:13;;;;;;;7.72;4.72;;;;;;;;;;5081780;28;20020;-86
2021/05/19 06:13:39;;;;;;;7.45;4.45;;;;;;;;;;5066486;28;20040;-85
2021/05/19 06:16:05;;;;;;;7.80;4.82;;;;;;;;;;5052759;28;20024;-86
2021/05/19 06:18:31;;;;;;;6.40;4.50;;;;;;;;;;5059948;28;20060;-87
2021/05/19 06:20:57;;;;;;;7.47;4.40;;;;;;;;;;5065828;28;20455;-84
2021/05/19 06:23:23;;;;;;;7.63;4.47;;;;;;;;;;5065290;28;20039;-86
2021/05/19 06:25:49;;;;;;;7.65;3.92;;;;;;;;;;5061779;28;20025;-85
2021/05/19 06:28:15;;;;;;;6.13;3.88;;;;;;;;;;5055628;28;20059;-86
2021/05/19 06:30:41;;;;;;;8.75;4.43;;;;;;;;;;5063349;28;20104;-86
2021/05/19 06:33:07;;;;;;;6.53;4.05;;;;;;;;;;5058755;28;20029;-86
2021/05/19 06:35:33;;;;;;;6.93;4.47;;;;;;;;;;5056032;28;20040;-86
2021/05/19 06:37:59;;;;;;;4.85;3.80;;;;;;;;;;5066638;28;20020;-85
2021/05/19 06:40:25;;;;;;;6.35;4.20;;;;;;;;;;5057232;28;20525;-86
2021/05/19 06:42:51;;;;;;;5.85;4.15;;;;;;;;;;5054674;28;20036;-86
2021/05/19 06:45:17;;;;;;;6.78;4.22;;;;;;;;;;5056454;28;20472;-86
2021/05/19 06:47:43;;;;;;;6.55;4.05;;;;;;;;;;5059164;28;20075;-85
2021/05/19 06:50:10;;;;;;;4.70;3.22;;;;;;;;;;5060433;28;20031;-87
2021/05/19 06:52:35;;;;;;;4.10;3.08;;;;;;;;;;5058684;28;20040;-86
2021/05/19 06:55:02;;;;;;;5.15;3.00;;;;;;;;;;5084083;28;20510;-85
2021/05/19 06:57:28;;;;;;;6.13;3.53;;;;;;;;;;5062753;28;20032;-85
2021/05/19 06:59:54;;;;;;;5.30;3.05;;;;;;;;;;5066918;28;20477;-85
2021/05/19 07:02:20;;;;;;;4.10;2.58;;;;;;;;;;5077195;28;20048;-87
2021/05/19 07:04:46;;;;;;;4.13;2.90;;;;;;;;;;5050733;28;20035;-87
2021/05/19 07:07:13;;;;;;;5.18;2.88;;;;;;;;;;5053055;28;20448;-87
2021/05/19 07:09:39;;;;;;;4.43;2.63;;;;;;;;;;5064646;28;20021;-86
2021/05/19 07:12:05;;;;;;;4.45;2.75;;;;;;;;;;5051996;28;20025;-87
2021/05/19 07:14:35;;;;;;;3.05;2.72;;;;;;;;;;5057575;28;20175;-87
2021/05/19 07:17:01;;;;;;;3.83;2.97;;;;;;;;;;5060292;28;20487;-85
2021/05/19 07:19:27;;;;;;;4.13;3.00;;;;;;;;;;5061883;28;20029;-85
2021/05/19 07:21:53;;;;;;;5.55;3.42;;;;;;;;;;5060321;28;20016;-85
2021/05/19 07:24:19;;;;;;;5.65;3.53;;;;;;;;;;5056992;28;20082;-84
2021/05/19 07:26:47;;;;;;;4.95;3.30;;;;;;;;;;5060519;28;20057;-85
2021/05/19 07:29:13;;;;;;;4.88;3.40;;;;;;;;;;5036652;28;20037;-85
2021/05/19 07:31:40;;;;;;;3.65;2.28;;;;;;;;;;5050211;28;20028;-84
2021/05/19 07:34:06;;;;;;;4.22;2.75;;;;;;;;;;5040537;28;20495;-85
2021/05/19 07:36:32;;;;;;;4.07;2.67;;;;;;;;;;5054071;28;20387;-85
2021/05/19 07:38:58;;;;;;;3.58;2.50;;;;;;;;;;5052233;28;20025;-85
2021/05/19 07:41:25;;;;;;;2.95;2.33;;;;;;;;;;5044413;28;20025;-85
2021/05/19 07:43:51;;;;;;;4.40;2.78;;;;;;;;;;5052748;28;20137;-85
2021/05/19 07:46:18;;;;;;;3.00;2.03;;;;;;;;;;5064086;28;20473;-85
2021/05/19 07:48:44;;;;;;;4.10;2.40;;;;;;;;;;5059067;28;20420;-85
2021/05/19 07:51:10;;;;;;;4.53;2.70;;;;;;;;;;5043737;28;20108;-85
2021/05/19 07:53:36;;;;;;;3.25;2.75;;;;;;;;;;5040078;28;20117;-85
2021/05/19 07:56:20;;;;;;;3.42;2.38;;;;;;;;;;5034319;28;20131;-85
2021/05/19 07:58:56;;;;;;;3.15;2.15;;;;;;;;;;5047390;28;20025;-85
2021/05/19 08:01:43;;;;;;;3.05;2.25;;;;;;;;;;5064154;28;20461;-85
2021/05/19 08:04:10;;;;;;;3.30;2.20;;;;;;;;;;5049781;28;20541;-85
2021/05/19 08:06:37;;;;;;;2.92;2.03;;;;;;;;;;5052270;28;20052;-85
2021/05/19 08:09:04;;;;;;;3.88;2.20;;;;;;;;;;5060318;28;20031;-85
2021/05/19 08:11:30;;;;;;;4.72;2.10;;;;;;;;;;5046237;28;20392;-85
2021/05/19 08:13:57;;;;;;;3.55;1.90;;;;;;;;;;5044981;28;20491;-85
2021/05/19 08:16:23;;;;;;;3.13;2.05;;;;;;;;;;5053550;28;20025;-85
2021/05/19 08:18:49;;;;;;;3.35;2.38;;;;;;;;;;5053720;28;20078;-85
2021/05/19 08:21:16;;;;;;;4.38;2.10;;;;;;;;;;5071702;28;20380;-85
2021/05/19 08:23:42;;;;;;;3.92;2.08;;;;;;;;;;5070423;28;20527;-84
2021/05/19 08:26:08;;;;;;;5.05;2.53;;;;;;;;;;5051360;28;20021;-85
2021/05/19 08:28:34;;;;;;;4.05;2.22;;;;;;;;;;5052849;28;20106;-85
2021/05/19 08:31:00;;;;;;;3.70;2.20;;;;;;;;;;5067124;28;20120;-85
2021/05/19 08:33:26;;;;;;;2.55;1.90;;;;;;;;;;5061812;28;20120;-85
2021/05/19 08:35:52;;;;;;;4.70;2.20;;;;;;;;;;5052044;28;20086;-85
2021/05/19 08:38:18;;;;;;;3.67;2.10;;;;;;;;;;5059532;28;20059;-85
2021/05/19 08:40:44;;;;;;;4.10;2.30;;;;;;;;;;5056142;28;20058;-85
2021/05/19 08:43:13;;;;;;;3.65;2.35;;;;;;;;;;5050114;28;20037;-85
2021/05/19 08:45:40;;;;;;;4.90;2.30;;;;;;;;;;5062825;28;20024;-85
2021/05/19 08:48:07;;;;;;;3.78;2.40;;;;;;;;;;5060549;28;20017;-85
2021/05/19 08:50:35;;;;;;;4.13;2.20;;;;;;;;;;5070178;28;20074;-85
2021/05/19 08:53:01;;;;;;;3.40;1.70;;;;;;;;;;5069723;28;20142;-85
2021/05/19 08:55:28;;;;;;;2.78;1.90;;;;;;;;;;5051793;28;20385;-85
2021/05/19 08:57:54;;;;;;;6.32;1.75;;;;;;;;;;5063189;28;20021;-85
2021/05/19 09:00:21;;;;;;;2.70;1.73;;;;;;;;;;5073491;28;20554;-85
2021/05/19 09:03:06;;;;;;;2.70;1.98;;;;;;;;;;5062582;28;20480;-85
2021/05/19 09:05:33;;;;;;;2.60;1.65;;;;;;;;;;5071802;28;20023;-85
2021/05/19 09:08:06;;;;;;;3.17;1.70;;;;;;;;;;5067181;28;20116;-85
2021/05/19 09:10:32;;;;;;;3.42;2.10;;;;;;;;;;5054678;28;20465;-84
2021/05/19 09:12:58;;;;;;;2.30;1.40;;;;;;;;;;5068005;28;20042;-85
2021/05/19 09:15:24;;;;;;;2.42;1.55;;;;;;;;;;5073487;28;20029;-85
2021/05/19 09:17:57;;;;;;;3.45;1.30;;;;;;;;;;5063899;28;20033;-85
2021/05/19 09:20:23;;;;;;;2.33;1.50;;;;;;;;;;5071722;28;20025;-84
2021/05/19 09:23:00;;;;;;;5.50;1.67;;;;;;;;;;5071583;28;20029;-85
2021/05/19 09:25:30;;;;;;;3.47;1.77;;;;;;;;;;5077761;28;20024;-84
2021/05/19 09:27:58;;;;;;;3.15;1.60;;;;;;;;;;5065741;28;20040;-84
2021/05/19 09:30:35;;;;;;;5.50;1.73;;;;;;;;;;5060720;28;20020;-84
2021/05/19 09:33:24;;;;;;;3.92;1.60;;;;;;;;;;5070937;28;20025;-84
2021/05/19 09:36:09;;;;;;;1.65;1.40;;;;;;;;;;5069854;28;20048;-84
2021/05/19 09:38:35;;;;;;;3.08;1.27;;;;;;;;;;5061747;28;20027;-85
2021/05/19 09:41:16;;;;;;;2.25;1.17;;;;;;;;;;5074903;28;20025;-87
2021/05/19 09:43:43;;;;;;;2.10;1.13;;;;;;;;;;5064123;28;20024;-85
2021/05/19 09:46:33;;;;;;;1.90;0.93;;;;;;;;;;5070183;28;20043;-85
2021/05/19 09:49:16;;;;;;;2.55;1.25;;;;;;;;;;5065969;28;20099;-85
2021/05/19 09:51:44;;;;;;;3.33;1.40;;;;;;;;;;5061127;28;20025;-86
2021/05/19 09:54:30;;;;;;;3.90;1.33;;;;;;;;;;5068448;28;20029;-83
2021/05/19 09:56:56;;;;;;;2.53;1.30;;;;;;;;;;5074178;28;20502;-84
2021/05/19 09:59:22;;;;;;;4.80;1.15;;;;;;;;;;5074117;28;20017;-83
2021/05/19 10:01:49;;;;;;;4.28;1.23;;;;;;;;;;5064646;28;20477;-84
2021/05/19 10:04:15;;;;;;;1.42;0.90;;;;;;;;;;5072303;28;20376;-83
2021/05/19 10:06:43;;;;;;;1.85;1.17;;;;;;;;;;5065747;28;20031;-86
2021/05/19 10:09:09;;;;;;;1.02;0.90;;;;;;;;;;5062320;28;20065;-86
2021/05/19 10:11:35;;;;;;;1.73;1.10;;;;;;;;;;5069557;28;20021;-86
2021/05/19 10:14:03;;;;;;;2.30;1.20;;;;;;;;;;5065752;28;20123;-85
2021/05/19 10:16:30;;;;;;;2.15;1.02;;;;;;;;;;5056790;28;20036;-86
2021/05/19 10:18:58;;;;;;;4.53;1.10;;;;;;;;;;5063994;28;20100;-86
2021/05/19 10:21:29;;;;;;;2.38;1.30;;;;;;;;;;5069226;28;20036;-86
2021/05/19 10:24:07;;;;;;;1.55;1.23;;;;;;;;;;5067052;28;20032;-86
2021/05/19 10:26:53;;;;;;;1.02;0.90;;;;;;;;;;5060780;28;20027;-86
2021/05/19 10:29:38;;;;;;;1.90;0.85;;;;;;;;;;5057055;28;20086;-84
2021/05/19 10:32:26;;;;;;;2.35;1.10;;;;;;;;;;5053677;28;20380;-85
2021/05/19 10:34:53;;;;;;;2.40;0.98;;;;;;;;;;5067778;28;20024;-86
2021/05/19 10:37:28;;;;;;;0.80;0.73;;;;;;;;;;5060491;28;20836;-86
2021/05/19 10:40:17;;;;;;;1.48;1.20;;;;;;;;;;5066824;28;20411;-85
2021/05/19 10:42:44;;;;;;;5.70;1.02;;;;;;;;;;5055951;28;20060;-85
2021/05/19 10:45:17;;;;;;;3.53;0.90;;;;;;;;;;5060723;28;20108;-86
2021/05/19 10:47:44;;;;;;;1.70;1.05;;;;;;;;;;5073151;28;20028;-85
2021/05/19 10:50:32;;;;;;;1.90;0.95;;;;;;;;;;5067225;28;20050;-84
2021/05/19 10:58:29;;;;;;;3.92;0.80;;;;;;;;;;5066474;28;20070;-85
2021/05/19 11:00:55;;;;;;;1.48;0.65;;;;;;;;;;5061542;28;20079;-84
2021/05/19 11:03:22;;;;;;;1.90;0.93;;;;;;;;;;5054430;28;20033;-85
2021/05/19 11:05:55;;;;;;;2.50;0.70;;;;;;;;;;5067986;28;20465;-85
2021/05/19 11:08:25;;;;;;;1.40;0.73;;;;;;;;;;5062721;28;20031;-86
2021/05/19 11:10:54;;;;;;;1.35;0.55;;;;;;;;;;5052720;28;20037;-86
2021/05/19 11:13:22;;;;;;;1.50;0.90;;;;;;;;;;5064857;28;20036;-86
2021/05/19 11:18:18;;;;;;;0.75;0.57;;;;;;;;;;5072407;28;20037;-86
2021/05/19 11:20:45;;;;;;;1.67;0.80;;;;;;;;;;5052190;28;20025;-86
2021/05/19 11:23:14;;;;;;;2.22;0.75;;;;;;;;;;5066012;28;20044;-86
2021/05/19 11:25:41;;;;;;;2.70;1.02;;;;;;;;;;5058816;28;20044;-86
2021/05/19 11:28:07;;;;;;;1.00;0.80;;;;;;;;;;5072765;28;20086;-86
2021/05/19 11:30:33;;;;;;;1.17;0.70;;;;;;;;;;5071203;28;20484;-86
2021/05/19 11:33:02;;;;;;;2.65;0.93;;;;;;;;;;5070609;28;20016;-87
2021/05/19 11:35:28;;;;;;;1.65;0.70;;;;;;;;;;5054020;28;20027;-85
2021/05/19 11:37:55;;;;;;;1.92;0.70;;;;;;;;;;5066493;28;20032;-84
2021/05/19 11:40:22;;;;;;;2.85;0.80;;;;;;;;;;5053829;28;20021;-87
2021/05/19 11:42:58;;;;;;;1.15;1.00;;;;;;;;;;5057465;28;20066;-87
2021/05/19 11:45:26;;;;;;;1.42;0.70;;;;;;;;;;5062515;28;20404;-89
2021/05/19 11:47:52;;;;;;;1.13;0.75;;;;;;;;;;5072184;28;20044;-88
2021/05/19 11:50:18;;;;;;;1.33;0.70;;;;;;;;;;5072765;28;20031;-87
2021/05/19 11:52:58;;;;;;;1.05;0.60;;;;;;;;;;5065588;28;20021;-87
2021/05/19 11:55:25;;;;;;;0.82;0.50;;;;;;;;;;5059495;28;20029;-88
2021/05/19 11:57:51;;;;;;;0.90;0.45;;;;;;;;;;5072216;28;20180;-87
2021/05/19 12:00:28;;;;;;;1.23;0.50;;;;;;;;;;5057760;28;20542;-88
2021/05/19 12:02:54;;;;;;;0.90;0.65;;;;;;;;;;5052928;28;20025;-89
2021/05/19 12:05:21;;;;;;;1.83;0.55;;;;;;;;;;5068228;28;20036;-87
2021/05/19 12:07:47;;;;;;;0.90;0.70;;;;;;;;;;5064260;28;20417;-87
2021/05/19 12:10:13;;;;;;;1.15;0.77;;;;;;;;;;5051481;28;20119;-88
2021/05/19 12:12:41;;;;;;;0.82;0.60;;;;;;;;;;5072669;28;20056;-87
2021/05/19 12:15:08;;;;;;;0.95;0.47;;;;;;;;;;5072384;28;20021;-87
2021/05/19 12:17:34;;;;;;;2.10;0.80;;;;;;;;;;5071261;28;20067;-87
2021/05/19 12:20:00;;;;;;;1.17;0.70;;;;;;;;;;5060255;28;20482;-87
2021/05/19 12:22:26;;;;;;;1.70;0.70;;;;;;;;;;5066846;28;20074;-87
2021/05/19 12:24:53;;;;;;;1.63;0.43;;;;;;;;;;5064759;28;20107;-87
2021/05/19 12:27:21;;;;;;;1.15;0.80;;;;;;;;;;5073967;28;20041;-87
2021/05/19 12:29:52;;;;;;;1.35;0.60;;;;;;;;;;5051948;28;20029;-85
2021/05/19 12:32:18;;;;;;;2.20;0.98;;;;;;;;;;5070969;28;20027;-86
2021/05/19 12:34:57;;;;;;;1.10;0.80;;;;;;;;;;5058444;28;20029;-87
2021/05/19 12:37:36;;;;;;;1.38;0.93;;;;;;;;;;5062640;28;20134;-86
2021/05/19 12:40:02;;;;;;;1.88;0.68;;;;;;;;;;5060518;28;20039;-86
2021/05/19 12:42:28;;;;;;;2.47;0.60;;;;;;;;;;5063871;28;20036;-88
2021/05/19 12:44:58;;;;;;;1.42;0.80;;;;;;;;;;5062031;28;20044;-87
2021/05/19 12:47:25;;;;;;;3.03;0.70;;;;;;;;;;5062922;28;20393;-89
2021/05/19 12:50:02;;;;;;;0.68;0.47;;;;;;;;;;5068798;28;20047;-86
2021/05/19 12:52:33;;;;;;;1.55;0.70;;;;;;;;;;5062844;28;20481;-86
2021/05/19 12:54:59;;;;;;;1.15;0.70;;;;;;;;;;5070286;28;20062;-87
2021/05/19 12:57:29;;;;;;;2.28;0.77;;;;;;;;;;5071346;28;20081;-88
2021/05/19 12:59:59;;;;;;;1.13;0.40;;;;;;;;;;5075361;28;20476;-89
2021/05/19 13:02:27;;;;;;;1.10;0.50;;;;;;;;;;5072187;28;20039;-88
2021/05/19 13:04:53;;;;;;;1.73;0.60;;;;;;;;;;5074950;28;20024;-86
2021/05/19 13:07:22;;;;;;;0.88;0.40;;;;;;;;;;5058160;28;20128;-87
2021/05/19 13:09:51;;;;;;;1.38;0.60;;;;;;;;;;5061246;28;20150;-88
2021/05/19 13:12:30;;;;;;;1.30;0.60;;;;;;;;;;5085024;28;20119;-88
2021/05/19 13:14:58;;;;;;;2.10;0.50;;;;;;;;;;5069649;28;20025;-88
2021/05/19 13:17:47;;;;;;;1.45;0.70;;;;;;;;;;5071887;28;20024;-87
2021/05/19 13:20:21;;;;;;;0.55;0.40;;;;;;;;;;5067697;28;20025;-87
2021/05/19 13:23:01;;;;;;;0.73;0.50;;;;;;;;;;5076457;28;20033;-88
2021/05/19 13:25:27;;;;;;;3.65;0.65;;;;;;;;;;5060015;28;20040;-86
2021/05/19 13:27:54;;;;;;;1.13;0.40;;;;;;;;;;5082094;28;20033;-87
2021/05/19 13:30:25;;;;;;;1.00;0.40;;;;;;;;;;5064267;28;20032;-86
2021/05/19 13:33:08;;;;;;;1.13;0.50;;;;;;;;;;5066754;28;20029;-86
2021/05/19 13:38:23;;;;;;;1.83;0.50;;;;;;;;;;5066842;28;20055;-83
2021/05/19 13:40:49;;;;;;;3.55;0.43;;;;;;;;;;5060138;28;20583;-85
2021/05/19 13:43:15;;;;;;;0.52;0.38;;;;;;;;;;5063666;28;20432;-85
2021/05/19 13:45:41;;;;;;;0.93;0.40;;;;;;;;;;5066713;28;20021;-85
2021/05/19 13:48:07;;;;;;;1.30;0.57;;;;;;;;;;5085285;28;20024;-84
2021/05/19 13:50:34;;;;;;;1.40;0.55;;;;;;;;;;5052437;28;20056;-84
2021/05/19 13:53:00;;;;;;;0.50;0.40;;;;;;;;;;5068102;28;20402;-85
2021/05/19 13:55:26;;;;;;;0.75;0.40;;;;;;;;;;5067148;28;20033;-84
2021/05/19 13:57:52;;;;;;;0.90;0.40;;;;;;;;;;5072078;28;20029;-84
2021/05/19 14:00:18;;;;;;;0.95;0.50;;;;;;;;;;5060565;28;20024;-85
2021/05/19 14:02:48;;;;;;;0.73;0.40;;;;;;;;;;5069223;28;20024;-85
2021/05/19 14:05:14;;;;;;;1.65;0.52;;;;;;;;;;5088971;28;20013;-85
2021/05/19 14:07:40;;;;;;;0.73;0.20;;;;;;;;;;5060333;28;20086;-86
2021/05/19 14:10:07;;;;;;;0.82;0.32;;;;;;;;;;5071164;28;20025;-86
2021/05/19 14:12:38;;;;;;;4.63;0.50;;;;;;;;;;5059685;28;20021;-85
2021/05/19 14:15:22;;;;;;;0.70;0.30;;;;;;;;;;5062279;28;20013;-85
2021/05/19 14:18:36;;;;;;;1.20;0.30;;;;;;;;;;5073495;28;20505;-85
2021/05/19 14:28:51;;;;;;;0.45;0.30;;;;;;;;;;5040796;28;20564;-84
2021/05/19 14:31:17;;;;;;;1.30;0.32;;;;;;;;;;5028485;28;20033;-84
2021/05/19 14:33:43;;;;;;;1.90;0.80;;;;;;;;;;5033809;28;20036;-84
2021/05/19 14:59:01;;;;;;;1.60;0.40;;;;;;;;;;5046159;28;20405;-86
2021/05/19 15:00:39;;;;;;;1.00;0.70;;;;;;;;;;5041671;28;20503;-87
2021/05/19 15:03:05;;;;;;;0.80;0.57;;;;;;;;;;5051781;28;20079;-87
2021/05/19 15:05:31;;;;;;;0.77;0.47;;;;;;;;;;5030722;28;20022;-88
2021/05/19 15:07:57;;;;;;;2.75;0.63;;;;;;;;;;5021354;28;20035;-88
2021/05/19 15:10:23;;;;;;;1.25;0.60;;;;;;;;;;5033676;28;20044;-87
2021/05/19 15:12:49;;;;;;;0.73;0.57;;;;;;;;;;5026870;28;20534;-88
2021/05/19 15:15:15;;;;;;;5.78;0.90;;;;;;;;;;5032692;28;20029;-86
2021/05/19 15:17:41;;;;;;;1.38;0.50;;;;;;;;;;5029307;28;20029;-84
2021/05/19 15:20:08;;;;;;;2.25;0.80;;;;;;;;;;5032269;28;20036;-87
2021/05/19 15:22:34;;;;;;;0.98;0.60;;;;;;;;;;5028527;28;20029;-82
2021/05/19 15:25:00;;;;;;;2.30;0.70;;;;;;;;;;5035951;28;20028;-82
2021/05/19 15:27:26;;;;;;;1.30;0.50;;;;;;;;;;5042069;28;20059;-83
2021/05/19 15:29:52;;;;;;;0.85;0.70;;;;;;;;;;5061539;28;20036;-83
2021/05/19 15:32:18;;;;;;;0.70;0.55;;;;;;;;;;5058660;28;20488;-83